sensor_id;sensor_type;location;lat;lon;timestamp;temperature;humidity
23477;DHT22;11911;50.768;13.150;2022-11-12T10:03:24;9.20;96.30
23477;DHT22;11911;50.768;13.150;2022-11-12T10:05:58;9.50;96.30
23477;DHT22;11911;50.768;13.150;2022-11-12T10:08:48;10.50;96.30
23477;DHT22;11911;50.768;13.150;2022-11-12T10:15:02;13.30;96.30
23477;DHT22;11911;50.768;13.150;2022-11-12T10:23:52;16.20;94.30
23477;DHT22;11911;50.768;13.150;2022-11-12T10:26:20;16.80;91.70
23477;DHT22;11911;50.768;13.150;2022-11-12T10:28:48;16.80;91.20
23477;DHT22;11911;50.768;13.150;2022-11-12T10:31:19;17.20;91.00
23477;DHT22;11911;50.768;13.150;2022-11-12T10:33:45;17.90;90.10
23477;DHT22;11911;50.768;13.150;2022-11-12T10:36:33;18.40;88.00
23477;DHT22;11911;50.768;13.150;2022-11-12T10:39:00;18.30;86.80
23477;DHT22;11911;50.768;13.150;2022-11-12T10:41:31;18.70;85.70
23477;DHT22;11911;50.768;13.150;2022-11-12T10:43:59;18.70;85.90
23477;DHT22;11911;50.768;13.150;2022-11-12T10:48:58;18.10;91.90
23477;DHT22;11911;50.768;13.150;2022-11-12T10:51:30;18.00;92.00
23477;DHT22;11911;50.768;13.150;2022-11-12T10:53:56;18.00;91.60
23477;DHT22;11911;50.768;13.150;2022-11-12T10:56:28;17.80;92.50
23477;DHT22;11911;50.768;13.150;2022-11-12T10:59:18;17.50;92.50
23477;DHT22;11911;50.768;13.150;2022-11-12T11:01:45;17.20;94.10
23477;DHT22;11911;50.768;13.150;2022-11-12T11:04:16;17.30;90.90
23477;DHT22;11911;50.768;13.150;2022-11-12T11:06:43;16.70;88.70
23477;DHT22;11911;50.768;13.150;2022-11-12T11:11:48;16.10;93.20
23477;DHT22;11911;50.768;13.150;2022-11-12T11:14:34;15.90;94.70
23477;DHT22;11911;50.768;13.150;2022-11-12T11:17:02;15.90;96.30
23477;DHT22;11911;50.768;13.150;2022-11-12T11:19:40;15.70;91.90
23477;DHT22;11911;50.768;13.150;2022-11-12T11:22:25;15.60;86.30
23477;DHT22;11911;50.768;13.150;2022-11-12T11:25:09;15.60;85.10
23477;DHT22;11911;50.768;13.150;2022-11-12T11:27:41;15.70;84.60
23477;DHT22;11911;50.768;13.150;2022-11-12T11:44:50;14.60;89.30
23477;DHT22;11911;50.768;13.150;2022-11-12T11:47:30;14.50;92.00
23477;DHT22;11911;50.768;13.150;2022-11-12T11:58:55;14.20;96.30
23477;DHT22;11911;50.768;13.150;2022-11-12T12:04:44;15.30;96.30
23477;DHT22;11911;50.768;13.150;2022-11-12T12:07:20;15.70;96.30
23477;DHT22;11911;50.768;13.150;2022-11-12T12:17:56;17.10;90.90
23477;DHT22;11911;50.768;13.150;2022-11-12T12:20:41;17.20;87.60
23477;DHT22;11911;50.768;13.150;2022-11-12T12:23:23;17.10;79.40
23477;DHT22;11911;50.768;13.150;2022-11-12T12:25:51;17.30;81.70
23477;DHT22;11911;50.768;13.150;2022-11-12T12:34:45;17.60;81.90
23477;DHT22;11911;50.768;13.150;2022-11-12T12:40:25;17.30;85.70
23477;DHT22;11911;50.768;13.150;2022-11-12T13:32:53;15.10;88.20
23477;DHT22;11911;50.768;13.150;2022-11-12T13:43:10;14.40;92.30
23477;DHT22;11911;50.768;13.150;2022-11-12T13:45:52;14.30;92.10
23477;DHT22;11911;50.768;13.150;2022-11-12T13:48:51;14.40;92.50
23477;DHT22;11911;50.768;13.150;2022-11-12T13:53:54;14.30;90.30
23477;DHT22;11911;50.768;13.150;2022-11-12T13:56:31;14.20;89.60
23477;DHT22;11911;50.768;13.150;2022-11-12T13:59:17;14.20;90.10
23477;DHT22;11911;50.768;13.150;2022-11-12T14:01:44;14.00;91.10
23477;DHT22;11911;50.768;13.150;2022-11-12T14:04:12;13.70;91.80
23477;DHT22;11911;50.768;13.150;2022-11-12T14:06:45;13.50;90.60
23477;DHT22;11911;50.768;13.150;2022-11-12T14:10:18;13.30;90.90
23477;DHT22;11911;50.768;13.150;2022-11-12T14:15:32;12.90;96.30
23477;DHT22;11911;50.768;13.150;2022-11-12T14:20:37;12.40;96.30
23477;DHT22;11911;50.768;13.150;2022-11-12T14:23:18;12.20;96.30
23477;DHT22;11911;50.768;13.150;2022-11-12T14:25:49;12.10;96.30
23477;DHT22;11911;50.768;13.150;2022-11-12T14:28:40;11.90;96.30
23477;DHT22;11911;50.768;13.150;2022-11-12T14:31:12;11.70;96.30
23477;DHT22;11911;50.768;13.150;2022-11-12T14:33:38;11.60;96.30
23477;DHT22;11911;50.768;13.150;2022-11-12T14:36:14;11.40;96.30
23477;DHT22;11911;50.768;13.150;2022-11-12T14:38:46;11.20;96.30
23477;DHT22;11911;50.768;13.150;2022-11-12T14:41:24;11.10;96.30
23477;DHT22;11911;50.768;13.150;2022-11-12T14:43:57;11.00;96.30
23477;DHT22;11911;50.768;13.150;2022-11-12T14:46:34;10.80;96.30
23477;DHT22;11911;50.768;13.150;2022-11-12T14:49:05;10.70;96.30
23477;DHT22;11911;50.768;13.150;2022-11-12T14:51:42;10.50;96.30
23477;DHT22;11911;50.768;13.150;2022-11-12T14:54:15;10.40;96.30
23477;DHT22;11911;50.768;13.150;2022-11-12T14:56:45;10.20;96.30
23477;DHT22;11911;50.768;13.150;2022-11-12T14:59:14;10.10;96.30
23477;DHT22;11911;50.768;13.150;2022-11-12T15:02:01;10.00;96.30
23477;DHT22;11911;50.768;13.150;2022-11-12T15:04:35;9.90;96.30
23477;DHT22;11911;50.768;13.150;2022-11-12T15:07:01;9.70;96.30
23477;DHT22;11911;50.768;13.150;2022-11-12T15:09:35;9.50;96.30
23477;DHT22;11911;50.768;13.150;2022-11-12T15:12:03;9.30;96.30
23477;DHT22;11911;50.768;13.150;2022-11-12T15:14:29;9.10;96.30
23477;DHT22;11911;50.768;13.150;2022-11-12T15:16:55;8.80;96.30
23477;DHT22;11911;50.768;13.150;2022-11-12T15:19:23;8.70;96.30
23477;DHT22;11911;50.768;13.150;2022-11-12T15:21:51;8.50;96.30
23477;DHT22;11911;50.768;13.150;2022-11-12T15:24:25;8.40;96.30
23477;DHT22;11911;50.768;13.150;2022-11-12T15:26:53;8.30;96.30
23477;DHT22;11911;50.768;13.150;2022-11-12T15:29:33;8.40;96.30
23477;DHT22;11911;50.768;13.150;2022-11-12T15:32:02;8.30;96.30
23477;DHT22;11911;50.768;13.150;2022-11-12T15:37:17;7.90;96.30
23477;DHT22;11911;50.768;13.150;2022-11-12T15:39:49;7.70;96.30
23477;DHT22;11911;50.768;13.150;2022-11-12T15:42:35;7.50;96.30
23477;DHT22;11911;50.768;13.150;2022-11-12T15:45:08;7.20;96.30
23477;DHT22;11911;50.768;13.150;2022-11-12T15:47:35;6.90;96.30
23477;DHT22;11911;50.768;13.150;2022-11-12T15:50:21;6.80;96.30
23477;DHT22;11911;50.768;13.150;2022-11-12T15:52:47;6.80;96.30
23477;DHT22;11911;50.768;13.150;2022-11-12T15:55:14;6.70;96.30
23477;DHT22;11911;50.768;13.150;2022-11-12T15:57:46;6.60;96.30
23477;DHT22;11911;50.768;13.150;2022-11-12T16:00:18;6.60;96.30
23477;DHT22;11911;50.768;13.150;2022-11-12T16:02:46;6.60;96.30
23477;DHT22;11911;50.768;13.150;2022-11-12T16:05:14;6.50;96.30
23477;DHT22;11911;50.768;13.150;2022-11-12T16:07:40;6.40;96.30
23477;DHT22;11911;50.768;13.150;2022-11-12T16:10:11;6.30;96.30
23477;DHT22;11911;50.768;13.150;2022-11-12T16:12:36;6.20;96.30
23477;DHT22;11911;50.768;13.150;2022-11-12T16:15:02;6.10;96.30
23477;DHT22;11911;50.768;13.150;2022-11-12T16:17:28;6.00;96.30
23477;DHT22;11911;50.768;13.150;2022-11-12T16:19:54;5.90;96.30
23477;DHT22;11911;50.768;13.150;2022-11-12T16:22:19;5.80;96.30
23477;DHT22;11911;50.768;13.150;2022-11-12T16:24:45;5.80;96.30
23477;DHT22;11911;50.768;13.150;2022-11-12T16:27:12;5.80;96.30
23477;DHT22;11911;50.768;13.150;2022-11-12T16:29:38;5.90;96.30
23477;DHT22;11911;50.768;13.150;2022-11-12T16:32:04;5.90;96.30
23477;DHT22;11911;50.768;13.150;2022-11-12T16:34:29;5.70;96.30
23477;DHT22;11911;50.768;13.150;2022-11-12T16:36:55;5.90;96.30
23477;DHT22;11911;50.768;13.150;2022-11-12T16:39:21;6.00;96.30
23477;DHT22;11911;50.768;13.150;2022-11-12T16:41:47;6.10;96.30
23477;DHT22;11911;50.768;13.150;2022-11-12T16:44:12;6.20;96.30
23477;DHT22;11911;50.768;13.150;2022-11-12T16:46:38;6.00;96.30
23477;DHT22;11911;50.768;13.150;2022-11-12T16:49:14;6.00;96.30
23477;DHT22;11911;50.768;13.150;2022-11-12T16:51:40;6.10;96.30
23477;DHT22;11911;50.768;13.150;2022-11-12T16:54:06;6.10;96.30
23477;DHT22;11911;50.768;13.150;2022-11-12T16:56:32;6.00;96.30
23477;DHT22;11911;50.768;13.150;2022-11-12T16:58:58;5.90;96.30
23477;DHT22;11911;50.768;13.150;2022-11-12T17:01:26;5.80;96.30
23477;DHT22;11911;50.768;13.150;2022-11-12T17:03:53;5.80;96.30
23477;DHT22;11911;50.768;13.150;2022-11-12T17:06:30;5.90;96.30
23477;DHT22;11911;50.768;13.150;2022-11-12T17:08:56;5.90;96.30
23477;DHT22;11911;50.768;13.150;2022-11-12T17:11:22;6.00;96.30
23477;DHT22;11911;50.768;13.150;2022-11-12T17:13:48;6.10;96.30
23477;DHT22;11911;50.768;13.150;2022-11-12T17:16:13;6.30;96.30
23477;DHT22;11911;50.768;13.150;2022-11-12T17:18:39;6.30;96.30
23477;DHT22;11911;50.768;13.150;2022-11-12T17:21:09;6.30;96.30
23477;DHT22;11911;50.768;13.150;2022-11-12T17:23:35;6.20;96.30
23477;DHT22;11911;50.768;13.150;2022-11-12T17:26:03;6.10;96.30
23477;DHT22;11911;50.768;13.150;2022-11-12T17:28:29;6.10;96.30
23477;DHT22;11911;50.768;13.150;2022-11-12T17:31:21;6.10;96.30
23477;DHT22;11911;50.768;13.150;2022-11-12T17:33:51;6.00;96.30
23477;DHT22;11911;50.768;13.150;2022-11-12T17:36:22;6.00;96.30
23477;DHT22;11911;50.768;13.150;2022-11-12T17:38:53;6.00;96.30
23477;DHT22;11911;50.768;13.150;2022-11-12T17:41:18;6.10;96.30
23477;DHT22;11911;50.768;13.150;2022-11-12T17:43:44;6.10;96.30
23477;DHT22;11911;50.768;13.150;2022-11-12T17:46:09;6.20;96.30
23477;DHT22;11911;50.768;13.150;2022-11-12T17:48:37;6.20;96.30
23477;DHT22;11911;50.768;13.150;2022-11-12T17:51:12;6.10;96.30
23477;DHT22;11911;50.768;13.150;2022-11-12T17:53:38;6.10;96.30
23477;DHT22;11911;50.768;13.150;2022-11-12T17:56:04;5.90;96.30
23477;DHT22;11911;50.768;13.150;2022-11-12T17:58:30;5.90;96.30
23477;DHT22;11911;50.768;13.150;2022-11-12T18:01:03;5.80;96.30
23477;DHT22;11911;50.768;13.150;2022-11-12T18:03:29;5.70;96.30
23477;DHT22;11911;50.768;13.150;2022-11-12T18:05:58;5.60;96.30
23477;DHT22;11911;50.768;13.150;2022-11-12T18:08:24;5.60;96.30
23477;DHT22;11911;50.768;13.150;2022-11-12T18:10:50;5.60;96.30
23477;DHT22;11911;50.768;13.150;2022-11-12T18:13:16;5.50;96.30
23477;DHT22;11911;50.768;13.150;2022-11-12T18:15:41;5.50;96.30
23477;DHT22;11911;50.768;13.150;2022-11-12T18:18:07;5.30;96.30
23477;DHT22;11911;50.768;13.150;2022-11-12T18:20:33;5.20;96.30
23477;DHT22;11911;50.768;13.150;2022-11-12T18:22:59;5.00;96.30
23477;DHT22;11911;50.768;13.150;2022-11-12T18:25:25;4.80;96.30
23477;DHT22;11911;50.768;13.150;2022-11-12T18:27:51;4.70;96.30
23477;DHT22;11911;50.768;13.150;2022-11-12T18:30:16;4.70;96.30
23477;DHT22;11911;50.768;13.150;2022-11-12T18:32:42;4.50;96.30
23477;DHT22;11911;50.768;13.150;2022-11-12T18:35:07;4.30;96.30
23477;DHT22;11911;50.768;13.150;2022-11-12T18:37:33;4.20;96.30
23477;DHT22;11911;50.768;13.150;2022-11-12T18:39:59;4.10;96.30
23477;DHT22;11911;50.768;13.150;2022-11-12T18:42:24;4.00;96.30
23477;DHT22;11911;50.768;13.150;2022-11-12T18:44:50;4.00;96.30
23477;DHT22;11911;50.768;13.150;2022-11-12T18:47:15;3.90;96.30
23477;DHT22;11911;50.768;13.150;2022-11-12T18:49:41;3.80;96.30
23477;DHT22;11911;50.768;13.150;2022-11-12T18:52:06;3.80;96.30
23477;DHT22;11911;50.768;13.150;2022-11-12T18:54:32;3.90;96.30
23477;DHT22;11911;50.768;13.150;2022-11-12T18:56:57;4.00;96.30
23477;DHT22;11911;50.768;13.150;2022-11-12T18:59:23;4.10;96.30
23477;DHT22;11911;50.768;13.150;2022-11-12T19:01:55;4.10;96.30
23477;DHT22;11911;50.768;13.150;2022-11-12T19:04:21;4.10;96.30
23477;DHT22;11911;50.768;13.150;2022-11-12T19:06:46;4.10;96.30
23477;DHT22;11911;50.768;13.150;2022-11-12T19:09:12;4.00;96.30
23477;DHT22;11911;50.768;13.150;2022-11-12T19:11:39;3.90;96.30
23477;DHT22;11911;50.768;13.150;2022-11-12T19:14:04;3.70;96.30
23477;DHT22;11911;50.768;13.150;2022-11-12T19:16:30;3.50;96.30
23477;DHT22;11911;50.768;13.150;2022-11-12T19:18:55;3.50;96.30
23477;DHT22;11911;50.768;13.150;2022-11-12T19:21:23;3.50;96.30
23477;DHT22;11911;50.768;13.150;2022-11-12T19:23:49;3.60;96.30
23477;DHT22;11911;50.768;13.150;2022-11-12T19:26:17;3.60;96.30
23477;DHT22;11911;50.768;13.150;2022-11-12T19:28:43;3.60;96.30
23477;DHT22;11911;50.768;13.150;2022-11-12T19:31:17;3.70;96.30
23477;DHT22;11911;50.768;13.150;2022-11-12T19:33:43;3.70;96.30
23477;DHT22;11911;50.768;13.150;2022-11-12T19:36:12;3.70;96.30
23477;DHT22;11911;50.768;13.150;2022-11-12T19:38:38;3.80;96.30
23477;DHT22;11911;50.768;13.150;2022-11-12T19:41:08;3.70;96.30
23477;DHT22;11911;50.768;13.150;2022-11-12T19:43:34;3.60;96.30
23477;DHT22;11911;50.768;13.150;2022-11-12T19:46:00;3.50;96.30
23477;DHT22;11911;50.768;13.150;2022-11-12T19:48:25;3.30;96.30
23477;DHT22;11911;50.768;13.150;2022-11-12T19:50:51;3.20;96.30
23477;DHT22;11911;50.768;13.150;2022-11-12T19:53:17;3.00;96.30
23477;DHT22;11911;50.768;13.150;2022-11-12T19:55:42;2.80;96.30
23477;DHT22;11911;50.768;13.150;2022-11-12T19:58:08;2.70;96.30
23477;DHT22;11911;50.768;13.150;2022-11-12T20:00:33;2.60;96.30
23477;DHT22;11911;50.768;13.150;2022-11-12T20:02:59;2.60;96.30
23477;DHT22;11911;50.768;13.150;2022-11-12T20:05:25;2.50;96.30
23477;DHT22;11911;50.768;13.150;2022-11-12T20:07:51;2.40;96.30
23477;DHT22;11911;50.768;13.150;2022-11-12T20:10:17;2.40;96.30
23477;DHT22;11911;50.768;13.150;2022-11-12T20:12:43;2.30;96.30
23477;DHT22;11911;50.768;13.150;2022-11-12T20:15:09;2.20;96.30
23477;DHT22;11911;50.768;13.150;2022-11-12T20:17:35;2.10;96.30
23477;DHT22;11911;50.768;13.150;2022-11-12T20:20:05;2.40;96.30
23477;DHT22;11911;50.768;13.150;2022-11-12T20:22:30;2.40;96.30
23477;DHT22;11911;50.768;13.150;2022-11-12T20:24:56;2.50;96.30
23477;DHT22;11911;50.768;13.150;2022-11-12T20:27:22;2.50;96.30
23477;DHT22;11911;50.768;13.150;2022-11-12T20:29:48;2.50;96.30
23477;DHT22;11911;50.768;13.150;2022-11-12T20:32:13;2.30;96.30
23477;DHT22;11911;50.768;13.150;2022-11-12T20:34:39;2.20;96.30
23477;DHT22;11911;50.768;13.150;2022-11-12T20:37:04;2.10;96.30
23477;DHT22;11911;50.768;13.150;2022-11-12T20:39:30;2.00;96.30
23477;DHT22;11911;50.768;13.150;2022-11-12T20:41:57;1.80;96.30
23477;DHT22;11911;50.768;13.150;2022-11-12T20:44:23;1.70;96.30
23477;DHT22;11911;50.768;13.150;2022-11-12T20:46:48;1.70;96.30
23477;DHT22;11911;50.768;13.150;2022-11-12T20:49:14;1.80;96.30
23477;DHT22;11911;50.768;13.150;2022-11-12T20:51:39;1.80;96.30
23477;DHT22;11911;50.768;13.150;2022-11-12T20:54:05;1.80;96.30
23477;DHT22;11911;50.768;13.150;2022-11-12T20:56:30;1.80;96.30
23477;DHT22;11911;50.768;13.150;2022-11-12T20:58:57;1.90;96.30
23477;DHT22;11911;50.768;13.150;2022-11-12T21:01:24;2.00;96.30
23477;DHT22;11911;50.768;13.150;2022-11-12T21:03:50;2.00;96.30
23477;DHT22;11911;50.768;13.150;2022-11-12T21:06:18;2.20;96.30
23477;DHT22;11911;50.768;13.150;2022-11-12T21:08:44;2.30;96.30
23477;DHT22;11911;50.768;13.150;2022-11-12T21:11:12;2.50;96.30
23477;DHT22;11911;50.768;13.150;2022-11-12T21:13:38;2.80;96.30
23477;DHT22;11911;50.768;13.150;2022-11-12T21:16:05;2.80;96.30
23477;DHT22;11911;50.768;13.150;2022-11-12T21:18:32;2.70;96.30
23477;DHT22;11911;50.768;13.150;2022-11-12T21:21:06;2.80;96.30
23477;DHT22;11911;50.768;13.150;2022-11-12T21:23:33;2.80;96.30
23477;DHT22;11911;50.768;13.150;2022-11-12T21:26:11;2.70;96.30
23477;DHT22;11911;50.768;13.150;2022-11-12T21:28:44;2.80;96.30
23477;DHT22;11911;50.768;13.150;2022-11-12T21:31:14;2.80;96.30
23477;DHT22;11911;50.768;13.150;2022-11-12T21:33:40;2.70;96.30
23477;DHT22;11911;50.768;13.150;2022-11-12T21:36:06;2.60;96.30
23477;DHT22;11911;50.768;13.150;2022-11-12T21:38:32;2.60;96.30
23477;DHT22;11911;50.768;13.150;2022-11-12T21:43:27;2.50;96.30
23477;DHT22;11911;50.768;13.150;2022-11-12T21:45:53;2.30;96.30
23477;DHT22;11911;50.768;13.150;2022-11-12T21:48:18;2.20;96.30
23477;DHT22;11911;50.768;13.150;2022-11-12T21:50:44;2.20;96.30
23477;DHT22;11911;50.768;13.150;2022-11-12T21:53:09;2.00;96.30
23477;DHT22;11911;50.768;13.150;2022-11-12T21:55:35;2.00;96.30
23477;DHT22;11911;50.768;13.150;2022-11-12T21:58:00;2.10;96.30
23477;DHT22;11911;50.768;13.150;2022-11-12T22:00:26;2.10;96.30
23477;DHT22;11911;50.768;13.150;2022-11-12T22:02:54;2.30;96.30
23477;DHT22;11911;50.768;13.150;2022-11-12T22:05:20;2.50;96.30
23477;DHT22;11911;50.768;13.150;2022-11-12T22:07:45;2.70;96.30
23477;DHT22;11911;50.768;13.150;2022-11-12T22:10:11;2.90;96.30
23477;DHT22;11911;50.768;13.150;2022-11-12T22:12:36;2.90;96.30
23477;DHT22;11911;50.768;13.150;2022-11-12T22:15:02;2.80;96.30
23477;DHT22;11911;50.768;13.150;2022-11-12T22:17:27;2.80;96.30
23477;DHT22;11911;50.768;13.150;2022-11-12T22:19:53;2.80;96.30
23477;DHT22;11911;50.768;13.150;2022-11-12T22:22:18;2.70;96.30
23477;DHT22;11911;50.768;13.150;2022-11-12T22:24:44;2.70;96.30
23477;DHT22;11911;50.768;13.150;2022-11-12T22:27:09;2.70;96.30
23477;DHT22;11911;50.768;13.150;2022-11-12T22:29:35;2.70;96.30
23477;DHT22;11911;50.768;13.150;2022-11-12T22:32:00;2.60;96.30
23477;DHT22;11911;50.768;13.150;2022-11-12T22:34:26;2.50;96.30
23477;DHT22;11911;50.768;13.150;2022-11-12T22:36:51;2.40;96.30
23477;DHT22;11911;50.768;13.150;2022-11-12T22:39:17;2.30;96.30
23477;DHT22;11911;50.768;13.150;2022-11-12T22:41:42;2.20;96.30
23477;DHT22;11911;50.768;13.150;2022-11-12T22:44:08;2.30;96.30
23477;DHT22;11911;50.768;13.150;2022-11-12T22:46:34;2.30;96.30
23477;DHT22;11911;50.768;13.150;2022-11-12T22:49:02;2.30;96.30
23477;DHT22;11911;50.768;13.150;2022-11-12T22:51:30;2.20;96.30
23477;DHT22;11911;50.768;13.150;2022-11-12T22:54:01;2.20;96.30
23477;DHT22;11911;50.768;13.150;2022-11-12T22:56:27;2.00;96.30
23477;DHT22;11911;50.768;13.150;2022-11-12T22:58:53;1.90;96.30
23477;DHT22;11911;50.768;13.150;2022-11-12T23:01:21;1.80;96.30
23477;DHT22;11911;50.768;13.150;2022-11-12T23:03:47;1.80;96.30
23477;DHT22;11911;50.768;13.150;2022-11-12T23:06:13;1.80;96.30
23477;DHT22;11911;50.768;13.150;2022-11-12T23:08:39;1.80;96.30
23477;DHT22;11911;50.768;13.150;2022-11-12T23:11:07;1.60;96.30
23477;DHT22;11911;50.768;13.150;2022-11-12T23:13:33;1.50;96.30
23477;DHT22;11911;50.768;13.150;2022-11-12T23:15:59;1.50;96.30
23477;DHT22;11911;50.768;13.150;2022-11-12T23:18:25;1.50;96.30
23477;DHT22;11911;50.768;13.150;2022-11-12T23:20:51;1.60;96.30
23477;DHT22;11911;50.768;13.150;2022-11-12T23:23:16;1.60;96.30
23477;DHT22;11911;50.768;13.150;2022-11-12T23:25:42;1.60;96.30
23477;DHT22;11911;50.768;13.150;2022-11-12T23:28:08;1.60;96.30
23477;DHT22;11911;50.768;13.150;2022-11-12T23:30:34;1.70;96.30
23477;DHT22;11911;50.768;13.150;2022-11-12T23:33:00;1.80;96.30
23477;DHT22;11911;50.768;13.150;2022-11-12T23:35:27;1.90;96.30
23477;DHT22;11911;50.768;13.150;2022-11-12T23:37:53;1.80;96.30
23477;DHT22;11911;50.768;13.150;2022-11-12T23:40:18;1.70;96.30
23477;DHT22;11911;50.768;13.150;2022-11-12T23:42:44;1.80;96.30
23477;DHT22;11911;50.768;13.150;2022-11-12T23:45:10;1.70;96.30
23477;DHT22;11911;50.768;13.150;2022-11-12T23:47:35;1.70;96.30
23477;DHT22;11911;50.768;13.150;2022-11-12T23:50:01;1.70;96.30
23477;DHT22;11911;50.768;13.150;2022-11-12T23:52:26;1.60;96.30
23477;DHT22;11911;50.768;13.150;2022-11-12T23:54:52;1.50;96.30
23477;DHT22;11911;50.768;13.150;2022-11-12T23:57:17;1.50;96.30
23477;DHT22;11911;50.768;13.150;2022-11-12T23:59:43;1.50;96.30
